createdAt,value
2018-12-25T00:01:14.325Z,24.50
2018-12-25T00:04:40.453Z,15.23
2018-12-25T00:08:06.510Z,15.70
2018-12-25T00:11:34.950Z,16.57
2018-12-25T00:15:00.678Z,16.90
2018-12-25T00:18:26.896Z,17.30
2018-12-25T00:21:53.211Z,16.57
2018-12-25T00:25:21.367Z,18.90
2018-12-25T00:28:47.720Z,16.10
2018-12-25T00:32:18.398Z,16.93
2018-12-25T00:35:44.374Z,15.73
2018-12-25T00:39:10.365Z,19.50
2018-12-25T00:42:36.601Z,17.37
2018-12-25T00:46:02.945Z,15.67
2018-12-25T00:49:30.323Z,18.23
2018-12-25T00:52:56.838Z,20.03
2018-12-25T00:56:22.892Z,16.03
2018-12-25T00:59:48.755Z,14.63
2018-12-25T01:03:17.045Z,14.93
2018-12-25T01:06:42.672Z,15.00
2018-12-25T01:10:08.522Z,23.57
2018-12-25T01:13:34.454Z,15.60
2018-12-25T01:17:01.278Z,14.27
2018-12-25T01:20:27.206Z,15.83
2018-12-25T01:23:53.206Z,14.47
2018-12-25T01:27:22.208Z,19.90
2018-12-25T01:30:48.409Z,17.47
2018-12-25T01:34:14.579Z,15.77
2018-12-25T01:37:40.702Z,13.77
2018-12-25T01:41:06.509Z,16.97
2018-12-25T01:44:35.166Z,18.13
2018-12-25T01:48:00.805Z,20.53
2018-12-25T01:51:26.390Z,19.13
2018-12-25T01:54:51.912Z,13.63
2018-12-25T01:58:17.491Z,16.83
2018-12-25T02:01:43.408Z,15.10
2018-12-25T02:05:08.988Z,16.67
2018-12-25T02:08:34.661Z,14.27
2018-12-25T02:12:00.300Z,16.93
2018-12-25T02:15:25.899Z,14.33
2018-12-25T02:18:51.459Z,19.77
2018-12-25T02:22:17.011Z,15.23
2018-12-25T02:25:42.864Z,15.73
2018-12-25T02:29:08.465Z,18.47
2018-12-25T02:32:34.332Z,14.93
2018-12-25T02:35:59.963Z,13.97
2018-12-25T02:39:25.562Z,14.77
2018-12-25T02:42:51.403Z,18.90
2018-12-25T02:46:16.954Z,17.83
2018-12-25T02:49:50.203Z,15.33
2018-12-25T02:53:09.835Z,16.00
2018-12-25T02:56:35.441Z,16.67
2018-12-25T03:00:01.299Z,15.07
2018-12-25T03:03:27.116Z,16.77
2018-12-25T03:06:52.726Z,15.00
2018-12-25T03:10:18.305Z,14.90
2018-12-25T03:13:44.183Z,15.10
2018-12-25T03:17:09.740Z,16.13
2018-12-25T03:20:35.395Z,13.97
2018-12-25T03:24:01.050Z,13.73
2018-12-25T03:27:26.925Z,12.63
2018-12-25T03:30:52.472Z,11.83
2018-12-25T03:34:18.113Z,12.23
2018-12-25T03:37:43.911Z,12.60
2018-12-25T03:41:10.037Z,12.40
2018-12-25T03:44:35.613Z,14.70
2018-12-25T03:48:01.149Z,12.33
2018-12-25T03:51:26.715Z,13.47
2018-12-25T03:54:52.322Z,15.03
2018-12-25T03:58:17.905Z,18.90
2018-12-25T04:01:43.494Z,13.43
2018-12-25T04:05:09.068Z,12.23
2018-12-25T04:08:34.630Z,15.67
2018-12-25T04:12:00.180Z,11.63
2018-12-25T04:15:25.733Z,13.40
2018-12-25T04:18:51.343Z,13.63
2018-12-25T04:22:16.914Z,13.03
2018-12-25T04:25:42.514Z,12.57
2018-12-25T04:29:08.298Z,15.03
2018-12-25T04:32:33.930Z,15.23
2018-12-25T04:35:59.573Z,13.10
2018-12-25T04:39:25.278Z,13.80
2018-12-25T04:42:50.798Z,14.73
2018-12-25T04:46:16.368Z,13.40
2018-12-25T04:49:42.286Z,14.10
2018-12-25T04:53:07.861Z,15.57
2018-12-25T04:56:33.448Z,15.27
2018-12-25T04:59:59.013Z,15.53
2018-12-25T05:03:24.625Z,17.13
2018-12-25T05:06:50.222Z,15.43
2018-12-25T05:10:15.783Z,16.90
2018-12-25T05:13:41.608Z,15.87
2018-12-25T05:17:07.256Z,15.87
2018-12-25T05:20:37.856Z,21.17
2018-12-25T05:24:00.455Z,16.53
2018-12-25T05:27:26.019Z,17.47
2018-12-25T05:30:51.610Z,15.43
2018-12-25T05:34:17.174Z,16.97
2018-12-25T05:37:42.718Z,17.73
2018-12-25T05:41:08.278Z,16.93
2018-12-25T05:44:33.948Z,18.27
2018-12-25T05:48:01.622Z,17.73
2018-12-25T05:51:27.189Z,17.03
2018-12-25T05:54:52.743Z,19.10
2018-12-25T05:58:18.303Z,18.10
2018-12-25T06:01:43.858Z,17.27
2018-12-25T06:05:09.423Z,19.93
2018-12-25T06:08:34.965Z,19.17
2018-12-25T06:12:00.507Z,19.07
2018-12-25T06:15:26.084Z,17.37
2018-12-25T06:18:51.601Z,24.30
2018-12-25T06:22:17.235Z,19.27
2018-12-25T06:25:42.811Z,19.17
2018-12-25T06:29:08.382Z,17.63
2018-12-25T06:32:34.257Z,17.70
2018-12-25T06:35:59.830Z,18.33
2018-12-25T06:39:25.393Z,16.20
2018-12-25T06:42:50.989Z,28.23
2018-12-25T06:46:16.831Z,17.37
2018-12-25T06:49:42.447Z,20.20
2018-12-25T06:53:08.056Z,18.90
2018-12-25T06:56:33.654Z,22.03
2018-12-25T06:59:59.223Z,20.23
2018-12-25T07:03:24.753Z,21.90
2018-12-25T07:06:50.589Z,19.27
2018-12-25T07:10:16.365Z,21.40
2018-12-25T07:13:41.969Z,27.03
2018-12-25T07:17:07.675Z,24.37
2018-12-25T07:20:33.315Z,23.33
2018-12-25T07:23:58.902Z,23.40
2018-12-25T07:27:24.812Z,20.03
2018-12-25T07:30:50.573Z,19.77
2018-12-25T07:34:16.514Z,25.90
2018-12-25T07:37:42.053Z,25.40
2018-12-25T07:41:07.818Z,22.80
2018-12-25T07:44:33.486Z,24.37
2018-12-25T07:47:59.166Z,24.67
2018-12-25T07:51:24.878Z,22.63
2018-12-25T07:54:50.545Z,21.70
2018-12-25T07:58:16.235Z,21.47
2018-12-25T08:01:42.117Z,22.10
2018-12-25T08:05:08.011Z,24.73
2018-12-25T08:08:33.650Z,23.90
2018-12-25T08:11:59.262Z,24.90
2018-12-25T08:15:24.824Z,27.00
2018-12-25T08:18:50.415Z,26.97
2018-12-25T08:22:15.973Z,29.73
2018-12-25T08:25:44.348Z,25.27
2018-12-25T08:29:09.882Z,27.07
2018-12-25T08:32:35.438Z,24.80
2018-12-25T08:36:01.110Z,20.10
2018-12-25T08:39:26.861Z,24.70
2018-12-25T08:42:52.556Z,24.33
2018-12-25T08:46:18.196Z,20.53
2018-12-25T08:49:43.786Z,27.63
2018-12-25T08:53:09.342Z,26.53
2018-12-25T08:56:35.087Z,21.77
2018-12-25T09:00:01.079Z,22.60
2018-12-25T09:03:26.863Z,23.47
2018-12-25T09:06:52.444Z,23.50
2018-12-25T09:10:18.059Z,21.30
2018-12-25T09:13:43.636Z,23.80
2018-12-25T09:17:09.308Z,19.90
2018-12-25T09:20:35.179Z,20.57
2018-12-25T09:24:00.849Z,24.33
2018-12-25T09:27:26.456Z,22.13
2018-12-25T09:30:52.089Z,22.27
2018-12-25T09:34:17.679Z,19.17
2018-12-25T09:37:43.242Z,20.37
2018-12-25T09:41:08.786Z,23.40
2018-12-25T09:44:34.357Z,21.07
2018-12-25T09:47:59.946Z,18.30
2018-12-25T09:51:25.527Z,20.03
2018-12-25T09:54:51.520Z,20.00
2018-12-25T09:58:17.211Z,21.47
2018-12-25T10:01:43.147Z,18.73
2018-12-25T10:05:08.670Z,15.43
2018-12-25T10:08:34.240Z,17.83
2018-12-25T10:11:59.811Z,21.93
2018-12-25T10:15:25.406Z,16.03
2018-12-25T10:18:50.924Z,16.53
2018-12-25T10:22:16.499Z,14.13
2018-12-25T10:25:42.493Z,15.13
2018-12-25T10:29:08.322Z,15.60
2018-12-25T10:32:33.891Z,13.30
2018-12-25T10:35:59.491Z,12.47
2018-12-25T10:39:25.065Z,14.83
2018-12-25T10:42:50.564Z,13.40
2018-12-25T10:46:16.053Z,13.20
2018-12-25T10:49:41.613Z,14.57
2018-12-25T10:53:07.432Z,15.80
2018-12-25T10:56:32.980Z,13.97
2018-12-25T10:59:59.063Z,14.03
2018-12-25T11:03:24.694Z,14.33
2018-12-25T11:06:50.258Z,12.30
2018-12-25T11:10:15.873Z,12.73
2018-12-25T11:13:41.733Z,11.10
2018-12-25T11:17:07.271Z,13.90
2018-12-25T11:20:34.637Z,12.33
2018-12-25T11:24:00.159Z,12.47
2018-12-25T11:27:25.763Z,17.60
2018-12-25T11:30:51.293Z,13.33
2018-12-25T11:34:17.207Z,17.20
2018-12-25T11:37:42.748Z,13.83
2018-12-25T11:41:08.402Z,16.57
2018-12-25T11:44:33.961Z,14.97
2018-12-25T11:47:59.592Z,16.33
2018-12-25T11:51:25.434Z,16.37
2018-12-25T11:54:51.137Z,11.97
2018-12-25T11:58:16.774Z,18.13
2018-12-25T12:01:42.431Z,12.80
2018-12-25T12:05:08.000Z,16.27
2018-12-25T12:08:33.953Z,13.83
2018-12-25T12:11:59.563Z,14.27
2018-12-25T12:15:25.116Z,14.27
2018-12-25T12:18:50.687Z,13.73
2018-12-25T12:22:16.481Z,12.03
2018-12-25T12:25:42.040Z,14.70
2018-12-25T12:29:07.607Z,14.67
2018-12-25T12:32:33.443Z,15.90
2018-12-25T12:35:59.374Z,14.00
2018-12-25T12:39:25.241Z,14.30
2018-12-25T12:42:50.834Z,14.07
2018-12-25T12:46:16.463Z,16.57
2018-12-25T12:49:42.062Z,14.13
2018-12-25T12:53:07.647Z,16.27
2018-12-25T12:56:33.201Z,17.87
2018-12-25T12:59:58.879Z,13.97
2018-12-25T13:03:24.992Z,15.23
2018-12-25T13:06:50.621Z,16.43
2018-12-25T13:10:16.470Z,13.23
2018-12-25T13:13:41.984Z,15.47
2018-12-25T13:17:07.547Z,12.77
2018-12-25T13:20:33.461Z,11.70
2018-12-25T13:23:59.097Z,12.57
2018-12-25T13:27:24.812Z,11.83
2018-12-25T13:30:50.411Z,11.47
2018-12-25T13:34:15.985Z,11.67
2018-12-25T13:37:41.550Z,17.50
2018-12-25T13:41:07.117Z,11.40
2018-12-25T13:44:32.657Z,11.73
2018-12-25T13:47:58.213Z,13.97
2018-12-25T13:51:23.790Z,13.73
2018-12-25T13:54:49.604Z,12.53
2018-12-25T13:58:15.166Z,13.23
2018-12-25T14:01:41.021Z,24.13
2018-12-25T14:05:06.660Z,17.17
2018-12-25T14:08:32.201Z,18.00
2018-12-25T14:11:57.783Z,16.83
2018-12-25T14:15:24.674Z,16.83
2018-12-25T14:18:50.407Z,18.60
2018-12-25T14:22:15.974Z,17.30
2018-12-25T14:25:41.529Z,19.43
2018-12-25T14:29:07.123Z,23.97
2018-12-25T14:32:32.675Z,21.43
2018-12-25T14:35:58.312Z,35.17
2018-12-25T14:39:23.945Z,21.40
2018-12-25T14:42:49.811Z,23.00
2018-12-25T14:46:15.442Z,14.87
2018-12-25T14:49:41.019Z,18.73
2018-12-25T14:53:06.541Z,20.27
2018-12-25T14:56:32.123Z,20.23
2018-12-25T14:59:58.334Z,21.37
2018-12-25T15:03:23.982Z,20.77
2018-12-25T15:06:49.553Z,19.07
2018-12-25T15:10:15.097Z,21.07
2018-12-25T15:13:40.643Z,26.27
2018-12-25T15:17:06.168Z,21.87
2018-12-25T15:20:32.065Z,26.13
2018-12-25T15:23:57.907Z,23.90
2018-12-25T15:27:23.454Z,18.83
2018-12-25T15:30:48.978Z,19.80
2018-12-25T15:34:14.546Z,19.03
2018-12-25T15:37:40.123Z,21.47
2018-12-25T15:41:05.692Z,21.80
2018-12-25T15:44:31.285Z,18.07
2018-12-25T15:47:56.943Z,19.40
2018-12-25T15:51:22.496Z,19.67
2018-12-25T15:54:48.073Z,23.67
2018-12-25T15:58:17.627Z,22.50
2018-12-25T16:01:43.258Z,25.73
2018-12-25T16:05:08.921Z,17.93
2018-12-25T16:08:34.582Z,20.37
2018-12-25T16:12:00.221Z,20.43
2018-12-25T16:15:25.755Z,20.00
2018-12-25T16:18:51.573Z,24.07
2018-12-25T16:22:17.210Z,20.97
2018-12-25T16:25:42.793Z,17.50
2018-12-25T16:29:08.371Z,20.33
2018-12-25T16:32:33.962Z,21.60
2018-12-25T16:35:59.514Z,19.30
2018-12-25T16:39:25.426Z,20.30
2018-12-25T16:42:51.935Z,27.90
2018-12-25T16:46:17.464Z,21.27
2018-12-25T16:49:43.160Z,22.60
2018-12-25T16:53:08.753Z,20.47
2018-12-25T16:56:34.582Z,23.60
2018-12-25T17:00:00.397Z,18.77
2018-12-25T17:03:26.234Z,20.33
2018-12-25T17:06:52.364Z,18.90
2018-12-25T17:10:18.313Z,20.00
2018-12-25T17:13:43.920Z,18.27
2018-12-25T17:17:09.518Z,19.83
2018-12-25T17:20:35.106Z,20.87
2018-12-25T17:24:02.309Z,17.57
2018-12-25T17:27:28.052Z,18.30
2018-12-25T17:30:53.667Z,20.07
2018-12-25T17:34:19.302Z,19.83
2018-12-25T17:37:44.956Z,19.53
2018-12-25T17:41:10.543Z,18.87
2018-12-25T17:44:36.106Z,21.90
2018-12-25T17:48:01.702Z,19.27
2018-12-25T17:51:27.200Z,20.20
2018-12-25T17:54:52.789Z,18.73
2018-12-25T17:58:18.439Z,22.30
2018-12-25T18:01:44.567Z,22.20
2018-12-25T18:05:12.106Z,24.13
2018-12-25T18:08:37.406Z,20.00
2018-12-25T18:12:02.957Z,25.67
2018-12-25T18:15:28.499Z,24.97
2018-12-25T18:18:54.046Z,23.03
2018-12-25T18:22:19.874Z,23.17
2018-12-25T18:25:45.409Z,20.40
2018-12-25T18:29:10.977Z,21.07
2018-12-25T18:32:36.582Z,28.60
2018-12-25T18:36:02.470Z,25.10
2018-12-25T18:39:28.057Z,24.47
2018-12-25T18:42:53.854Z,30.13
2018-12-25T18:46:19.458Z,24.87
2018-12-25T18:49:45.016Z,25.17
2018-12-25T18:53:10.576Z,25.87
2018-12-25T18:56:36.092Z,24.83
2018-12-25T19:00:01.701Z,24.27
2018-12-25T19:03:27.278Z,22.97
2018-12-25T19:06:52.868Z,26.17
2018-12-25T19:10:18.465Z,24.07
2018-12-25T19:13:44.115Z,26.47
2018-12-25T19:17:09.670Z,23.67
2018-12-25T19:20:35.459Z,25.53
2018-12-25T19:24:02.533Z,29.70
2018-12-25T19:27:28.117Z,30.73
2018-12-25T19:30:53.675Z,27.87
2018-12-25T19:34:19.350Z,26.53
2018-12-25T19:37:44.931Z,26.60
2018-12-25T19:41:10.535Z,27.37
2018-12-25T19:44:36.040Z,27.10
2018-12-25T19:48:01.577Z,30.67
2018-12-25T19:51:27.402Z,29.50
2018-12-25T19:54:53.256Z,27.47
2018-12-25T19:58:18.835Z,32.97
2018-12-25T20:01:44.421Z,29.13
2018-12-25T20:05:42.176Z,30.20
2018-12-25T20:09:58.896Z,33.43
2018-12-25T20:14:26.789Z,29.43
2018-12-25T20:18:50.165Z,35.03
2018-12-25T20:23:12.061Z,32.87
2018-12-25T20:27:51.293Z,34.23
2018-12-25T20:32:31.326Z,31.13
2018-12-25T20:36:52.260Z,33.27
2018-12-25T20:41:28.493Z,36.07
2018-12-25T20:45:43.474Z,39.63
2018-12-25T20:49:53.695Z,33.60
2018-12-25T20:54:15.657Z,34.47
2018-12-25T20:58:45.145Z,37.87
2018-12-25T21:02:48.989Z,37.50
2018-12-25T21:07:04.084Z,35.27
2018-12-25T21:11:33.212Z,34.23
2018-12-25T21:16:08.433Z,33.33
2018-12-25T21:20:31.122Z,42.67
2018-12-25T21:24:49.790Z,37.67
2018-12-25T21:28:13.016Z,33.70
2018-12-25T21:31:38.601Z,40.33
2018-12-25T21:35:24.483Z,38.50
2018-12-25T21:38:49.988Z,38.03
2018-12-25T21:42:15.841Z,41.13
2018-12-25T21:45:41.438Z,42.10
2018-12-25T21:49:07.541Z,45.00
2018-12-25T21:52:33.708Z,44.10
2018-12-25T21:55:59.347Z,46.50
2018-12-25T21:59:25.359Z,44.90
2018-12-25T22:02:52.024Z,44.47
2018-12-25T22:06:17.578Z,42.63
2018-12-25T22:09:43.162Z,48.23
2018-12-25T22:13:08.821Z,46.77
2018-12-25T22:16:34.387Z,44.07
2018-12-25T22:20:00.612Z,46.53
2018-12-25T22:23:26.170Z,44.60
2018-12-25T22:26:51.720Z,49.03
2018-12-25T22:30:17.301Z,44.07
2018-12-25T22:33:42.927Z,45.43
2018-12-25T22:37:08.552Z,55.47
2018-12-25T22:40:34.149Z,52.90
2018-12-25T22:43:59.695Z,47.03
2018-12-25T22:47:25.563Z,53.57
2018-12-25T22:50:51.923Z,51.13
2018-12-25T22:54:17.681Z,56.80
2018-12-25T22:57:46.376Z,60.27
2018-12-25T23:01:11.855Z,51.13
2018-12-25T23:04:37.786Z,48.00
2018-12-25T23:08:03.359Z,46.07
2018-12-25T23:11:28.902Z,43.20
2018-12-25T23:14:54.717Z,43.53
2018-12-25T23:18:20.283Z,46.33
2018-12-25T23:21:45.837Z,51.03
2018-12-25T23:25:11.390Z,43.67
2018-12-25T23:28:37.289Z,45.63
2018-12-25T23:32:03.102Z,46.10
2018-12-25T23:35:28.718Z,44.23
2018-12-25T23:38:54.281Z,42.37
2018-12-25T23:42:19.858Z,53.90
2018-12-25T23:45:45.688Z,48.90
2018-12-25T23:49:11.266Z,45.13
2018-12-25T23:52:37.098Z,45.70
2018-12-25T23:56:02.678Z,45.60
2018-12-25T23:59:28.497Z,46.93
